sensor_id;sensor_type;location;lat;lon;timestamp;temperature;humidity
2647;DHT22;1333;50.958;6.770;2023-03-12T00:00:16;2.30;99.90
2647;DHT22;1333;50.958;6.770;2023-03-12T00:02:41;2.30;99.90
2647;DHT22;1333;50.958;6.770;2023-03-12T00:05:07;2.30;99.90
2647;DHT22;1333;50.958;6.770;2023-03-12T00:07:33;2.40;99.90
2647;DHT22;1333;50.958;6.770;2023-03-12T00:10:01;2.40;99.90
2647;DHT22;1333;50.958;6.770;2023-03-12T00:12:27;2.40;99.90
2647;DHT22;1333;50.958;6.770;2023-03-12T00:14:52;2.30;99.90
2647;DHT22;1333;50.958;6.770;2023-03-12T00:17:18;2.30;99.90
2647;DHT22;1333;50.958;6.770;2023-03-12T00:19:43;2.30;99.90
2647;DHT22;1333;50.958;6.770;2023-03-12T00:22:09;2.20;99.90
2647;DHT22;1333;50.958;6.770;2023-03-12T00:24:35;2.40;99.90
2647;DHT22;1333;50.958;6.770;2023-03-12T00:27:00;2.40;99.90
2647;DHT22;1333;50.958;6.770;2023-03-12T00:29:26;2.40;99.90
2647;DHT22;1333;50.958;6.770;2023-03-12T00:31:51;2.40;99.90
2647;DHT22;1333;50.958;6.770;2023-03-12T00:34:17;2.40;99.90
2647;DHT22;1333;50.958;6.770;2023-03-12T00:36:43;2.40;99.90
2647;DHT22;1333;50.958;6.770;2023-03-12T00:39:09;2.50;99.90
2647;DHT22;1333;50.958;6.770;2023-03-12T00:41:34;2.40;99.90
2647;DHT22;1333;50.958;6.770;2023-03-12T00:44:00;2.50;99.90
2647;DHT22;1333;50.958;6.770;2023-03-12T00:46:25;2.50;99.90
2647;DHT22;1333;50.958;6.770;2023-03-12T00:48:51;2.50;99.90
2647;DHT22;1333;50.958;6.770;2023-03-12T00:51:17;2.40;99.90
2647;DHT22;1333;50.958;6.770;2023-03-12T00:53:42;2.40;99.90
2647;DHT22;1333;50.958;6.770;2023-03-12T00:56:08;2.40;99.90
2647;DHT22;1333;50.958;6.770;2023-03-12T00:58:34;2.40;99.90
2647;DHT22;1333;50.958;6.770;2023-03-12T01:00:59;2.40;99.90
2647;DHT22;1333;50.958;6.770;2023-03-12T01:03:25;2.40;99.90
2647;DHT22;1333;50.958;6.770;2023-03-12T01:05:50;2.30;99.90
2647;DHT22;1333;50.958;6.770;2023-03-12T01:08:19;2.40;99.90
2647;DHT22;1333;50.958;6.770;2023-03-12T01:10:45;2.50;99.90
2647;DHT22;1333;50.958;6.770;2023-03-12T01:13:11;2.50;99.90
2647;DHT22;1333;50.958;6.770;2023-03-12T01:15:37;2.50;99.90
2647;DHT22;1333;50.958;6.770;2023-03-12T01:18:02;2.50;99.90
2647;DHT22;1333;50.958;6.770;2023-03-12T01:20:28;2.50;99.90
2647;DHT22;1333;50.958;6.770;2023-03-12T01:22:54;2.50;99.90
2647;DHT22;1333;50.958;6.770;2023-03-12T01:25:19;2.40;99.90
2647;DHT22;1333;50.958;6.770;2023-03-12T01:27:45;2.60;99.90
2647;DHT22;1333;50.958;6.770;2023-03-12T01:30:11;2.50;99.90
2647;DHT22;1333;50.958;6.770;2023-03-12T01:32:36;2.40;99.90
2647;DHT22;1333;50.958;6.770;2023-03-12T01:35:02;2.50;99.90
2647;DHT22;1333;50.958;6.770;2023-03-12T01:37:28;2.50;99.90
2647;DHT22;1333;50.958;6.770;2023-03-12T01:39:53;2.50;99.90
2647;DHT22;1333;50.958;6.770;2023-03-12T01:42:19;2.40;99.90
2647;DHT22;1333;50.958;6.770;2023-03-12T01:44:56;2.40;99.90
2647;DHT22;1333;50.958;6.770;2023-03-12T01:47:23;2.40;99.90
2647;DHT22;1333;50.958;6.770;2023-03-12T01:49:50;2.40;99.90
2647;DHT22;1333;50.958;6.770;2023-03-12T01:52:20;2.30;99.90
2647;DHT22;1333;50.958;6.770;2023-03-12T01:57:25;2.20;99.90
2647;DHT22;1333;50.958;6.770;2023-03-12T02:00:14;2.10;99.90
2647;DHT22;1333;50.958;6.770;2023-03-12T02:02:42;2.10;99.90
2647;DHT22;1333;50.958;6.770;2023-03-12T02:05:37;2.10;99.90
2647;DHT22;1333;50.958;6.770;2023-03-12T02:08:09;2.20;99.90
2647;DHT22;1333;50.958;6.770;2023-03-12T02:10:35;2.20;99.90
2647;DHT22;1333;50.958;6.770;2023-03-12T02:13:00;2.30;99.90
2647;DHT22;1333;50.958;6.770;2023-03-12T02:15:26;2.20;99.90
2647;DHT22;1333;50.958;6.770;2023-03-12T02:17:52;2.20;99.90
2647;DHT22;1333;50.958;6.770;2023-03-12T02:20:26;2.20;99.90
2647;DHT22;1333;50.958;6.770;2023-03-12T02:23:09;2.30;99.90
2647;DHT22;1333;50.958;6.770;2023-03-12T02:25:38;2.20;99.90
2647;DHT22;1333;50.958;6.770;2023-03-12T02:28:08;2.20;99.90
2647;DHT22;1333;50.958;6.770;2023-03-12T02:30:34;2.30;99.90
2647;DHT22;1333;50.958;6.770;2023-03-12T02:33:04;2.30;99.90
2647;DHT22;1333;50.958;6.770;2023-03-12T02:35:30;2.40;99.90
2647;DHT22;1333;50.958;6.770;2023-03-12T02:37:56;2.40;99.90
2647;DHT22;1333;50.958;6.770;2023-03-12T02:40:33;2.40;99.90
2647;DHT22;1333;50.958;6.770;2023-03-12T02:43:00;2.50;99.90
2647;DHT22;1333;50.958;6.770;2023-03-12T02:45:26;2.60;99.90
2647;DHT22;1333;50.958;6.770;2023-03-12T02:47:54;2.60;99.90
2647;DHT22;1333;50.958;6.770;2023-03-12T02:50:19;2.60;99.90
2647;DHT22;1333;50.958;6.770;2023-03-12T02:52:45;2.60;99.90
2647;DHT22;1333;50.958;6.770;2023-03-12T02:55:11;2.70;99.90
2647;DHT22;1333;50.958;6.770;2023-03-12T02:57:36;2.60;99.90
2647;DHT22;1333;50.958;6.770;2023-03-12T03:00:05;2.50;99.90
2647;DHT22;1333;50.958;6.770;2023-03-12T03:02:31;2.60;99.90
2647;DHT22;1333;50.958;6.770;2023-03-12T03:04:57;2.60;99.90
2647;DHT22;1333;50.958;6.770;2023-03-12T03:07:22;2.60;99.90
2647;DHT22;1333;50.958;6.770;2023-03-12T03:09:48;2.60;99.90
2647;DHT22;1333;50.958;6.770;2023-03-12T03:12:13;2.60;99.90
2647;DHT22;1333;50.958;6.770;2023-03-12T03:14:39;2.60;99.90
2647;DHT22;1333;50.958;6.770;2023-03-12T03:17:04;2.60;99.90
2647;DHT22;1333;50.958;6.770;2023-03-12T03:19:30;2.70;99.90
2647;DHT22;1333;50.958;6.770;2023-03-12T03:21:56;2.70;99.90
2647;DHT22;1333;50.958;6.770;2023-03-12T03:24:21;2.60;99.90
2647;DHT22;1333;50.958;6.770;2023-03-12T03:26:47;2.60;99.90
2647;DHT22;1333;50.958;6.770;2023-03-12T03:29:13;2.60;99.90
2647;DHT22;1333;50.958;6.770;2023-03-12T03:31:38;2.50;99.90
2647;DHT22;1333;50.958;6.770;2023-03-12T03:34:04;2.50;99.90
2647;DHT22;1333;50.958;6.770;2023-03-12T03:36:29;2.50;99.90
2647;DHT22;1333;50.958;6.770;2023-03-12T03:38:55;2.60;99.90
2647;DHT22;1333;50.958;6.770;2023-03-12T03:41:20;2.60;99.90
2647;DHT22;1333;50.958;6.770;2023-03-12T03:43:47;2.60;99.90
2647;DHT22;1333;50.958;6.770;2023-03-12T03:46:13;2.70;99.90
2647;DHT22;1333;50.958;6.770;2023-03-12T03:48:40;2.80;99.90
2647;DHT22;1333;50.958;6.770;2023-03-12T03:51:07;2.90;99.90
2647;DHT22;1333;50.958;6.770;2023-03-12T03:53:33;2.90;99.90
2647;DHT22;1333;50.958;6.770;2023-03-12T03:56:08;2.90;99.90
2647;DHT22;1333;50.958;6.770;2023-03-12T03:58:33;3.00;99.90
2647;DHT22;1333;50.958;6.770;2023-03-12T04:00:59;3.00;99.90
2647;DHT22;1333;50.958;6.770;2023-03-12T04:03:25;3.10;99.90
2647;DHT22;1333;50.958;6.770;2023-03-12T04:05:58;3.00;99.90
2647;DHT22;1333;50.958;6.770;2023-03-12T04:08:23;3.00;99.90
2647;DHT22;1333;50.958;6.770;2023-03-12T04:10:50;3.10;99.90
2647;DHT22;1333;50.958;6.770;2023-03-12T04:13:15;3.10;99.90
2647;DHT22;1333;50.958;6.770;2023-03-12T04:15:49;3.20;99.90
2647;DHT22;1333;50.958;6.770;2023-03-12T04:18:17;3.10;99.90
2647;DHT22;1333;50.958;6.770;2023-03-12T04:20:43;3.20;99.90
2647;DHT22;1333;50.958;6.770;2023-03-12T04:23:09;3.10;99.90
2647;DHT22;1333;50.958;6.770;2023-03-12T04:25:35;3.20;99.90
2647;DHT22;1333;50.958;6.770;2023-03-12T04:28:01;3.10;99.90
2647;DHT22;1333;50.958;6.770;2023-03-12T04:30:27;3.00;99.90
2647;DHT22;1333;50.958;6.770;2023-03-12T04:32:53;3.10;99.90
2647;DHT22;1333;50.958;6.770;2023-03-12T04:35:19;3.10;99.90
2647;DHT22;1333;50.958;6.770;2023-03-12T04:37:44;3.20;99.90
2647;DHT22;1333;50.958;6.770;2023-03-12T04:40:11;3.20;99.90
2647;DHT22;1333;50.958;6.770;2023-03-12T04:42:37;3.10;99.90
2647;DHT22;1333;50.958;6.770;2023-03-12T04:45:04;3.10;99.90
2647;DHT22;1333;50.958;6.770;2023-03-12T04:47:31;3.00;99.90
2647;DHT22;1333;50.958;6.770;2023-03-12T04:49:57;3.00;99.90
2647;DHT22;1333;50.958;6.770;2023-03-12T04:52:23;2.90;99.90
2647;DHT22;1333;50.958;6.770;2023-03-12T04:54:48;2.80;99.90
2647;DHT22;1333;50.958;6.770;2023-03-12T04:57:14;2.80;99.90
2647;DHT22;1333;50.958;6.770;2023-03-12T04:59:39;2.70;99.90
2647;DHT22;1333;50.958;6.770;2023-03-12T05:02:05;2.70;99.90
2647;DHT22;1333;50.958;6.770;2023-03-12T05:04:30;2.70;99.90
2647;DHT22;1333;50.958;6.770;2023-03-12T05:06:56;2.50;99.90
2647;DHT22;1333;50.958;6.770;2023-03-12T05:09:21;2.60;99.90
2647;DHT22;1333;50.958;6.770;2023-03-12T05:11:47;2.60;99.90
2647;DHT22;1333;50.958;6.770;2023-03-12T05:14:12;2.50;99.90
2647;DHT22;1333;50.958;6.770;2023-03-12T05:16:38;2.50;99.90
2647;DHT22;1333;50.958;6.770;2023-03-12T05:19:04;2.60;99.90
2647;DHT22;1333;50.958;6.770;2023-03-12T05:21:30;2.50;99.90
2647;DHT22;1333;50.958;6.770;2023-03-12T05:23:56;2.60;99.90
2647;DHT22;1333;50.958;6.770;2023-03-12T05:26:24;2.50;99.90
2647;DHT22;1333;50.958;6.770;2023-03-12T05:28:51;2.50;99.90
2647;DHT22;1333;50.958;6.770;2023-03-12T05:31:17;2.50;99.90
2647;DHT22;1333;50.958;6.770;2023-03-12T05:33:43;2.50;99.90
2647;DHT22;1333;50.958;6.770;2023-03-12T05:36:09;2.30;99.90
2647;DHT22;1333;50.958;6.770;2023-03-12T05:38:36;2.30;99.90
2647;DHT22;1333;50.958;6.770;2023-03-12T05:41:02;2.20;99.90
2647;DHT22;1333;50.958;6.770;2023-03-12T05:43:28;2.20;99.90
2647;DHT22;1333;50.958;6.770;2023-03-12T05:45:58;2.10;99.90
2647;DHT22;1333;50.958;6.770;2023-03-12T05:48:24;2.10;99.90
2647;DHT22;1333;50.958;6.770;2023-03-12T05:50:50;2.10;99.90
2647;DHT22;1333;50.958;6.770;2023-03-12T05:53:15;2.10;99.90
2647;DHT22;1333;50.958;6.770;2023-03-12T05:55:40;2.10;99.90
2647;DHT22;1333;50.958;6.770;2023-03-12T05:58:07;2.00;99.90
2647;DHT22;1333;50.958;6.770;2023-03-12T06:00:33;2.00;99.90
2647;DHT22;1333;50.958;6.770;2023-03-12T06:03:05;2.10;99.90
2647;DHT22;1333;50.958;6.770;2023-03-12T06:05:32;2.10;99.90
2647;DHT22;1333;50.958;6.770;2023-03-12T06:07:58;2.20;99.90
2647;DHT22;1333;50.958;6.770;2023-03-12T06:10:24;2.20;99.90
2647;DHT22;1333;50.958;6.770;2023-03-12T06:12:49;2.20;99.90
2647;DHT22;1333;50.958;6.770;2023-03-12T06:15:15;2.30;99.90
2647;DHT22;1333;50.958;6.770;2023-03-12T06:17:40;2.30;99.90
2647;DHT22;1333;50.958;6.770;2023-03-12T06:20:07;2.40;99.90
2647;DHT22;1333;50.958;6.770;2023-03-12T06:22:32;2.40;99.90
2647;DHT22;1333;50.958;6.770;2023-03-12T06:24:58;2.40;99.90
2647;DHT22;1333;50.958;6.770;2023-03-12T06:27:24;2.50;99.90
2647;DHT22;1333;50.958;6.770;2023-03-12T06:29:49;2.50;99.90
2647;DHT22;1333;50.958;6.770;2023-03-12T06:32:16;2.50;99.90
2647;DHT22;1333;50.958;6.770;2023-03-12T06:34:42;2.60;99.90
2647;DHT22;1333;50.958;6.770;2023-03-12T06:37:08;2.60;99.90
2647;DHT22;1333;50.958;6.770;2023-03-12T06:39:34;2.70;99.90
2647;DHT22;1333;50.958;6.770;2023-03-12T06:42:00;2.70;99.90
2647;DHT22;1333;50.958;6.770;2023-03-12T06:44:25;2.70;99.90
2647;DHT22;1333;50.958;6.770;2023-03-12T06:46:51;2.80;99.90
2647;DHT22;1333;50.958;6.770;2023-03-12T06:49:16;2.90;99.90
2647;DHT22;1333;50.958;6.770;2023-03-12T06:51:42;2.90;99.90
2647;DHT22;1333;50.958;6.770;2023-03-12T06:54:07;3.00;99.90
2647;DHT22;1333;50.958;6.770;2023-03-12T06:56:33;3.00;99.90
2647;DHT22;1333;50.958;6.770;2023-03-12T06:58:59;3.00;99.90
2647;DHT22;1333;50.958;6.770;2023-03-12T07:01:24;3.00;99.90
2647;DHT22;1333;50.958;6.770;2023-03-12T07:03:50;3.00;99.90
2647;DHT22;1333;50.958;6.770;2023-03-12T07:06:19;3.00;99.90
2647;DHT22;1333;50.958;6.770;2023-03-12T07:08:45;3.10;99.90
2647;DHT22;1333;50.958;6.770;2023-03-12T07:11:11;3.10;99.90
2647;DHT22;1333;50.958;6.770;2023-03-12T07:13:36;3.20;99.90
2647;DHT22;1333;50.958;6.770;2023-03-12T07:16:02;3.20;99.90
2647;DHT22;1333;50.958;6.770;2023-03-12T07:18:28;3.30;99.90
2647;DHT22;1333;50.958;6.770;2023-03-12T07:20:53;3.30;99.90
2647;DHT22;1333;50.958;6.770;2023-03-12T07:23:20;3.40;99.90
2647;DHT22;1333;50.958;6.770;2023-03-12T07:25:46;3.40;99.90
2647;DHT22;1333;50.958;6.770;2023-03-12T07:28:12;3.50;99.90
2647;DHT22;1333;50.958;6.770;2023-03-12T07:30:38;3.50;99.90
2647;DHT22;1333;50.958;6.770;2023-03-12T07:33:07;3.50;99.90
2647;DHT22;1333;50.958;6.770;2023-03-12T07:35:33;3.60;99.90
2647;DHT22;1333;50.958;6.770;2023-03-12T07:37:59;3.60;99.90
2647;DHT22;1333;50.958;6.770;2023-03-12T07:40:25;3.80;99.90
2647;DHT22;1333;50.958;6.770;2023-03-12T07:42:51;3.70;99.90
2647;DHT22;1333;50.958;6.770;2023-03-12T07:45:17;3.90;99.90
2647;DHT22;1333;50.958;6.770;2023-03-12T07:47:43;4.00;99.90
2647;DHT22;1333;50.958;6.770;2023-03-12T07:50:09;4.10;99.90
2647;DHT22;1333;50.958;6.770;2023-03-12T07:52:35;4.10;99.90
2647;DHT22;1333;50.958;6.770;2023-03-12T07:55:01;4.10;99.90
2647;DHT22;1333;50.958;6.770;2023-03-12T07:57:26;4.20;99.90
2647;DHT22;1333;50.958;6.770;2023-03-12T07:59:52;4.30;99.90
2647;DHT22;1333;50.958;6.770;2023-03-12T08:02:17;4.40;99.90
2647;DHT22;1333;50.958;6.770;2023-03-12T08:04:43;4.50;99.90
2647;DHT22;1333;50.958;6.770;2023-03-12T08:07:08;4.60;99.90
2647;DHT22;1333;50.958;6.770;2023-03-12T08:09:34;4.60;99.90
2647;DHT22;1333;50.958;6.770;2023-03-12T08:12:00;4.60;99.90
2647;DHT22;1333;50.958;6.770;2023-03-12T08:14:25;4.50;99.90
2647;DHT22;1333;50.958;6.770;2023-03-12T08:16:56;4.60;99.90
2647;DHT22;1333;50.958;6.770;2023-03-12T08:19:21;4.60;99.90
2647;DHT22;1333;50.958;6.770;2023-03-12T08:21:47;4.70;99.90
2647;DHT22;1333;50.958;6.770;2023-03-12T08:24:12;4.80;99.90
2647;DHT22;1333;50.958;6.770;2023-03-12T08:26:38;4.90;99.90
2647;DHT22;1333;50.958;6.770;2023-03-12T08:29:04;4.80;99.90
2647;DHT22;1333;50.958;6.770;2023-03-12T08:31:29;5.00;99.90
2647;DHT22;1333;50.958;6.770;2023-03-12T08:33:55;5.00;99.90
2647;DHT22;1333;50.958;6.770;2023-03-12T08:36:20;5.00;99.90
2647;DHT22;1333;50.958;6.770;2023-03-12T08:38:46;5.00;99.90
2647;DHT22;1333;50.958;6.770;2023-03-12T08:41:12;5.00;99.90
2647;DHT22;1333;50.958;6.770;2023-03-12T08:43:37;4.90;99.90
2647;DHT22;1333;50.958;6.770;2023-03-12T08:46:03;4.90;99.90
2647;DHT22;1333;50.958;6.770;2023-03-12T08:48:30;4.90;99.90
2647;DHT22;1333;50.958;6.770;2023-03-12T08:50:57;4.90;99.90
2647;DHT22;1333;50.958;6.770;2023-03-12T08:53:25;4.90;99.90
2647;DHT22;1333;50.958;6.770;2023-03-12T08:55:55;5.00;99.90
2647;DHT22;1333;50.958;6.770;2023-03-12T08:58:21;5.00;99.90
2647;DHT22;1333;50.958;6.770;2023-03-12T09:00:47;5.00;99.90
2647;DHT22;1333;50.958;6.770;2023-03-12T09:03:13;5.10;99.90
2647;DHT22;1333;50.958;6.770;2023-03-12T09:05:40;5.10;99.90
2647;DHT22;1333;50.958;6.770;2023-03-12T09:08:06;5.10;99.90
2647;DHT22;1333;50.958;6.770;2023-03-12T09:10:31;5.20;99.90
2647;DHT22;1333;50.958;6.770;2023-03-12T09:12:58;5.10;99.90
2647;DHT22;1333;50.958;6.770;2023-03-12T09:15:23;5.20;99.90
2647;DHT22;1333;50.958;6.770;2023-03-12T09:17:49;5.30;99.90
2647;DHT22;1333;50.958;6.770;2023-03-12T09:20:15;5.30;99.90
2647;DHT22;1333;50.958;6.770;2023-03-12T09:22:41;5.30;99.90
2647;DHT22;1333;50.958;6.770;2023-03-12T09:25:09;5.40;99.90
2647;DHT22;1333;50.958;6.770;2023-03-12T09:27:42;5.50;99.90
2647;DHT22;1333;50.958;6.770;2023-03-12T09:30:14;5.50;99.90
2647;DHT22;1333;50.958;6.770;2023-03-12T09:32:40;5.60;99.90
2647;DHT22;1333;50.958;6.770;2023-03-12T09:35:07;5.60;99.90
2647;DHT22;1333;50.958;6.770;2023-03-12T09:37:34;5.70;99.90
2647;DHT22;1333;50.958;6.770;2023-03-12T09:40:00;5.70;99.90
2647;DHT22;1333;50.958;6.770;2023-03-12T09:45:05;5.70;99.90
2647;DHT22;1333;50.958;6.770;2023-03-12T09:47:34;5.80;99.90
2647;DHT22;1333;50.958;6.770;2023-03-12T09:50:18;5.90;99.90
2647;DHT22;1333;50.958;6.770;2023-03-12T09:55:23;6.10;99.90
2647;DHT22;1333;50.958;6.770;2023-03-12T09:57:50;6.20;99.90
2647;DHT22;1333;50.958;6.770;2023-03-12T10:00:21;6.40;99.90
2647;DHT22;1333;50.958;6.770;2023-03-12T10:03:04;6.40;99.90
2647;DHT22;1333;50.958;6.770;2023-03-12T10:05:58;6.60;99.90
2647;DHT22;1333;50.958;6.770;2023-03-12T10:08:56;6.80;99.90
2647;DHT22;1333;50.958;6.770;2023-03-12T10:11:37;6.90;99.90
2647;DHT22;1333;50.958;6.770;2023-03-12T10:14:30;7.10;99.90
2647;DHT22;1333;50.958;6.770;2023-03-12T10:28:15;7.50;99.90
2647;DHT22;1333;50.958;6.770;2023-03-12T10:30:45;7.70;99.90
2647;DHT22;1333;50.958;6.770;2023-03-12T10:33:15;7.70;99.90
2647;DHT22;1333;50.958;6.770;2023-03-12T10:35:41;7.90;99.90
2647;DHT22;1333;50.958;6.770;2023-03-12T10:38:28;8.10;99.90
2647;DHT22;1333;50.958;6.770;2023-03-12T10:40:54;8.30;99.90
2647;DHT22;1333;50.958;6.770;2023-03-12T10:43:19;8.50;99.90
2647;DHT22;1333;50.958;6.770;2023-03-12T10:48:31;9.00;99.90
2647;DHT22;1333;50.958;6.770;2023-03-12T10:53:30;9.30;99.90
2647;DHT22;1333;50.958;6.770;2023-03-12T10:56:02;9.40;99.90
2647;DHT22;1333;50.958;6.770;2023-03-12T10:58:34;9.50;99.90
2647;DHT22;1333;50.958;6.770;2023-03-12T11:01:02;9.50;99.90
2647;DHT22;1333;50.958;6.770;2023-03-12T11:03:29;9.50;99.90
2647;DHT22;1333;50.958;6.770;2023-03-12T11:05:58;9.50;99.90
2647;DHT22;1333;50.958;6.770;2023-03-12T11:10:54;9.80;99.90
2647;DHT22;1333;50.958;6.770;2023-03-12T11:15:49;10.10;99.90
2647;DHT22;1333;50.958;6.770;2023-03-12T11:20:53;10.50;99.90
2647;DHT22;1333;50.958;6.770;2023-03-12T11:23:24;10.80;99.90
2647;DHT22;1333;50.958;6.770;2023-03-12T11:25:55;10.90;99.90
2647;DHT22;1333;50.958;6.770;2023-03-12T11:28:24;10.80;99.90
2647;DHT22;1333;50.958;6.770;2023-03-12T11:30:52;11.00;99.90
2647;DHT22;1333;50.958;6.770;2023-03-12T11:33:20;11.00;99.90
2647;DHT22;1333;50.958;6.770;2023-03-12T11:44:37;11.70;99.90
2647;DHT22;1333;50.958;6.770;2023-03-12T11:52:55;12.10;99.90
2647;DHT22;1333;50.958;6.770;2023-03-12T11:55:24;12.30;99.90
2647;DHT22;1333;50.958;6.770;2023-03-12T11:58:29;12.40;99.90
2647;DHT22;1333;50.958;6.770;2023-03-12T12:14:48;12.40;99.90
2647;DHT22;1333;50.958;6.770;2023-03-12T12:22:50;13.90;99.90
2647;DHT22;1333;50.958;6.770;2023-03-12T12:25:22;15.00;99.90
2647;DHT22;1333;50.958;6.770;2023-03-12T12:31:03;16.00;99.90
2647;DHT22;1333;50.958;6.770;2023-03-12T12:36:28;15.70;99.90
2647;DHT22;1333;50.958;6.770;2023-03-12T12:39:00;15.60;99.90
2647;DHT22;1333;50.958;6.770;2023-03-12T12:41:34;15.20;99.90
2647;DHT22;1333;50.958;6.770;2023-03-12T12:44:10;15.00;99.90
2647;DHT22;1333;50.958;6.770;2023-03-12T12:46:40;14.70;99.90
2647;DHT22;1333;50.958;6.770;2023-03-12T12:49:18;14.60;99.90
2647;DHT22;1333;50.958;6.770;2023-03-12T12:51:51;14.50;99.90
2647;DHT22;1333;50.958;6.770;2023-03-12T12:57:10;15.80;99.90
2647;DHT22;1333;50.958;6.770;2023-03-12T13:02:58;18.00;99.90
2647;DHT22;1333;50.958;6.770;2023-03-12T13:05:28;17.10;99.90
2647;DHT22;1333;50.958;6.770;2023-03-12T13:08:05;16.70;99.90
2647;DHT22;1333;50.958;6.770;2023-03-12T13:13:19;15.40;99.90
2647;DHT22;1333;50.958;6.770;2023-03-12T13:15:45;15.00;99.90
2647;DHT22;1333;50.958;6.770;2023-03-12T13:18:27;15.00;99.90
2647;DHT22;1333;50.958;6.770;2023-03-12T13:33:50;14.50;99.90
2647;DHT22;1333;50.958;6.770;2023-03-12T13:39:29;14.50;99.90
2647;DHT22;1333;50.958;6.770;2023-03-12T13:41:57;14.70;99.90
2647;DHT22;1333;50.958;6.770;2023-03-12T13:47:19;15.00;99.90
2647;DHT22;1333;50.958;6.770;2023-03-12T13:50:22;14.90;99.90
2647;DHT22;1333;50.958;6.770;2023-03-12T13:53:00;14.70;99.90
2647;DHT22;1333;50.958;6.770;2023-03-12T13:55:34;14.60;99.90
2647;DHT22;1333;50.958;6.770;2023-03-12T14:14:25;15.10;99.90
2647;DHT22;1333;50.958;6.770;2023-03-12T14:16:56;15.20;99.90
2647;DHT22;1333;50.958;6.770;2023-03-12T14:19:25;15.00;99.90
2647;DHT22;1333;50.958;6.770;2023-03-12T14:21:52;14.90;99.90
2647;DHT22;1333;50.958;6.770;2023-03-12T14:26:49;15.00;99.90
2647;DHT22;1333;50.958;6.770;2023-03-12T14:31:54;14.80;99.90
2647;DHT22;1333;50.958;6.770;2023-03-12T14:34:23;14.80;99.90
2647;DHT22;1333;50.958;6.770;2023-03-12T14:37:03;14.70;99.90
2647;DHT22;1333;50.958;6.770;2023-03-12T14:39:45;14.50;99.90
2647;DHT22;1333;50.958;6.770;2023-03-12T14:42:21;14.50;99.90
2647;DHT22;1333;50.958;6.770;2023-03-12T14:45:08;14.20;99.90
2647;DHT22;1333;50.958;6.770;2023-03-12T14:47:52;14.20;99.90
2647;DHT22;1333;50.958;6.770;2023-03-12T14:52:50;14.40;99.90
2647;DHT22;1333;50.958;6.770;2023-03-12T14:55:22;14.60;99.90
2647;DHT22;1333;50.958;6.770;2023-03-12T14:57:48;14.70;99.90
2647;DHT22;1333;50.958;6.770;2023-03-12T15:02:52;14.50;99.90
2647;DHT22;1333;50.958;6.770;2023-03-12T15:05:20;14.50;99.90
2647;DHT22;1333;50.958;6.770;2023-03-12T15:07:46;14.60;99.90
2647;DHT22;1333;50.958;6.770;2023-03-12T15:10:24;14.30;99.90
2647;DHT22;1333;50.958;6.770;2023-03-12T15:12:53;14.40;99.90
2647;DHT22;1333;50.958;6.770;2023-03-12T15:17:51;14.00;99.90
2647;DHT22;1333;50.958;6.770;2023-03-12T15:20:17;13.80;99.90
2647;DHT22;1333;50.958;6.770;2023-03-12T15:22:43;13.70;99.90
2647;DHT22;1333;50.958;6.770;2023-03-12T15:25:30;13.50;99.90
2647;DHT22;1333;50.958;6.770;2023-03-12T15:30:31;13.50;99.90
2647;DHT22;1333;50.958;6.770;2023-03-12T15:33:22;13.50;99.90
2647;DHT22;1333;50.958;6.770;2023-03-12T15:38:49;13.60;99.90
2647;DHT22;1333;50.958;6.770;2023-03-12T15:41:27;13.50;99.90
2647;DHT22;1333;50.958;6.770;2023-03-12T15:43:57;13.60;99.90
2647;DHT22;1333;50.958;6.770;2023-03-12T15:46:24;13.30;99.90
2647;DHT22;1333;50.958;6.770;2023-03-12T15:48:52;13.20;99.90
2647;DHT22;1333;50.958;6.770;2023-03-12T15:51:32;13.30;99.90
2647;DHT22;1333;50.958;6.770;2023-03-12T15:54:03;13.30;99.90
2647;DHT22;1333;50.958;6.770;2023-03-12T15:56:32;13.30;99.90
2647;DHT22;1333;50.958;6.770;2023-03-12T15:59:22;13.50;99.90
2647;DHT22;1333;50.958;6.770;2023-03-12T16:01:51;13.60;99.90
2647;DHT22;1333;50.958;6.770;2023-03-12T16:04:17;13.60;99.90
2647;DHT22;1333;50.958;6.770;2023-03-12T16:06:45;13.70;99.90
2647;DHT22;1333;50.958;6.770;2023-03-12T16:09:18;13.80;99.90
2647;DHT22;1333;50.958;6.770;2023-03-12T16:11:46;13.70;99.90
2647;DHT22;1333;50.958;6.770;2023-03-12T16:16:49;13.50;99.90
2647;DHT22;1333;50.958;6.770;2023-03-12T16:19:18;13.50;99.90
2647;DHT22;1333;50.958;6.770;2023-03-12T16:21:45;13.60;99.90
2647;DHT22;1333;50.958;6.770;2023-03-12T16:24:11;13.60;99.90
2647;DHT22;1333;50.958;6.770;2023-03-12T16:26:46;13.50;99.90
2647;DHT22;1333;50.958;6.770;2023-03-12T16:29:15;13.50;99.90
2647;DHT22;1333;50.958;6.770;2023-03-12T16:31:41;13.60;99.90
2647;DHT22;1333;50.958;6.770;2023-03-12T16:34:10;13.30;99.90
2647;DHT22;1333;50.958;6.770;2023-03-12T16:36:35;13.30;99.90
2647;DHT22;1333;50.958;6.770;2023-03-12T16:39:01;13.10;99.90
2647;DHT22;1333;50.958;6.770;2023-03-12T16:41:27;13.10;99.90
2647;DHT22;1333;50.958;6.770;2023-03-12T16:43:53;13.00;99.90
2647;DHT22;1333;50.958;6.770;2023-03-12T16:46:20;12.90;99.90
2647;DHT22;1333;50.958;6.770;2023-03-12T16:48:50;12.80;99.90
2647;DHT22;1333;50.958;6.770;2023-03-12T16:51:20;12.80;99.90
2647;DHT22;1333;50.958;6.770;2023-03-12T16:53:45;12.70;99.90
2647;DHT22;1333;50.958;6.770;2023-03-12T16:56:15;12.60;99.90
2647;DHT22;1333;50.958;6.770;2023-03-12T16:58:41;12.50;99.90
2647;DHT22;1333;50.958;6.770;2023-03-12T17:01:14;12.50;99.90
2647;DHT22;1333;50.958;6.770;2023-03-12T17:03:41;12.40;99.90
2647;DHT22;1333;50.958;6.770;2023-03-12T17:06:17;12.30;99.90
2647;DHT22;1333;50.958;6.770;2023-03-12T17:08:44;12.30;99.90
2647;DHT22;1333;50.958;6.770;2023-03-12T17:13:46;12.10;99.90
2647;DHT22;1333;50.958;6.770;2023-03-12T17:16:12;12.00;99.90
2647;DHT22;1333;50.958;6.770;2023-03-12T17:18:39;11.90;99.90
2647;DHT22;1333;50.958;6.770;2023-03-12T17:21:05;11.80;99.90
2647;DHT22;1333;50.958;6.770;2023-03-12T17:23:31;11.80;99.90
2647;DHT22;1333;50.958;6.770;2023-03-12T17:25:57;11.80;99.90
2647;DHT22;1333;50.958;6.770;2023-03-12T17:28:23;11.70;99.90
2647;DHT22;1333;50.958;6.770;2023-03-12T17:30:49;11.70;99.90
2647;DHT22;1333;50.958;6.770;2023-03-12T17:33:17;11.70;99.90
2647;DHT22;1333;50.958;6.770;2023-03-12T17:35:43;11.50;99.90
2647;DHT22;1333;50.958;6.770;2023-03-12T17:38:09;11.50;99.90
2647;DHT22;1333;50.958;6.770;2023-03-12T17:40:38;11.40;99.90
2647;DHT22;1333;50.958;6.770;2023-03-12T17:43:04;11.40;99.90
2647;DHT22;1333;50.958;6.770;2023-03-12T17:45:29;11.40;99.90
2647;DHT22;1333;50.958;6.770;2023-03-12T17:47:55;11.40;99.90
2647;DHT22;1333;50.958;6.770;2023-03-12T17:50:20;11.40;99.90
2647;DHT22;1333;50.958;6.770;2023-03-12T17:52:46;11.40;99.90
2647;DHT22;1333;50.958;6.770;2023-03-12T17:55:11;11.40;99.90
2647;DHT22;1333;50.958;6.770;2023-03-12T17:57:37;11.30;99.90
2647;DHT22;1333;50.958;6.770;2023-03-12T18:00:03;11.30;99.90
2647;DHT22;1333;50.958;6.770;2023-03-12T18:02:35;11.40;99.90
2647;DHT22;1333;50.958;6.770;2023-03-12T18:05:00;11.40;99.90
2647;DHT22;1333;50.958;6.770;2023-03-12T18:07:26;11.40;99.90
2647;DHT22;1333;50.958;6.770;2023-03-12T18:09:51;11.40;99.90
2647;DHT22;1333;50.958;6.770;2023-03-12T18:12:17;11.50;99.90
2647;DHT22;1333;50.958;6.770;2023-03-12T18:14:42;11.50;99.90
2647;DHT22;1333;50.958;6.770;2023-03-12T18:17:08;11.50;99.90
2647;DHT22;1333;50.958;6.770;2023-03-12T18:19:33;11.50;99.90
2647;DHT22;1333;50.958;6.770;2023-03-12T18:21:59;11.50;99.90
2647;DHT22;1333;50.958;6.770;2023-03-12T18:24:24;11.50;99.90
2647;DHT22;1333;50.958;6.770;2023-03-12T18:26:50;11.50;99.90
2647;DHT22;1333;50.958;6.770;2023-03-12T18:29:16;11.50;99.90
2647;DHT22;1333;50.958;6.770;2023-03-12T18:31:42;11.50;99.90
2647;DHT22;1333;50.958;6.770;2023-03-12T18:34:07;11.50;99.90
2647;DHT22;1333;50.958;6.770;2023-03-12T18:36:33;11.60;99.90